createdAt,value
2023-03-31T00:02:13.778Z,9.82
2023-03-31T00:04:46.413Z,9.77
2023-03-31T00:07:14.698Z,9.85
2023-03-31T00:09:46.349Z,9.88
2023-03-31T00:12:16.051Z,9.89
2023-03-31T00:14:43.706Z,9.92
2023-03-31T00:17:10.838Z,9.86
2023-03-31T00:19:37.927Z,9.86
2023-03-31T00:22:05.497Z,9.85
2023-03-31T00:24:33.177Z,9.85
2023-03-31T00:27:01.345Z,9.86
2023-03-31T00:29:28.775Z,9.89
2023-03-31T00:31:55.559Z,9.86
2023-03-31T00:34:22.274Z,9.91
2023-03-31T00:36:48.937Z,9.81
2023-03-31T00:39:18.394Z,9.76
2023-03-31T00:41:45.431Z,9.68
2023-03-31T00:44:19.140Z,9.75
2023-03-31T00:46:52.880Z,9.74
2023-03-31T00:52:09.024Z,9.85
2023-03-31T00:54:36.722Z,9.81
2023-03-31T00:57:06.972Z,9.73
2023-03-31T00:59:38.988Z,9.71
2023-03-31T01:02:05.910Z,9.69
2023-03-31T01:04:39.322Z,9.64
2023-03-31T01:07:18.500Z,9.64
2023-03-31T01:09:48.894Z,9.70
2023-03-31T01:12:18.177Z,9.67
2023-03-31T01:14:44.874Z,9.65
2023-03-31T01:17:11.727Z,9.70
2023-03-31T01:20:19.244Z,9.67
2023-03-31T01:31:09.411Z,9.64
2023-03-31T01:45:01.404Z,9.83
2023-03-31T01:50:31.349Z,9.58
2023-03-31T01:53:25.869Z,9.56
2023-03-31T01:58:36.898Z,9.49
2023-03-31T02:01:10.061Z,9.48
2023-03-31T02:03:43.625Z,9.50
2023-03-31T02:06:16.250Z,9.48
2023-03-31T02:08:47.777Z,9.50
2023-03-31T02:11:14.489Z,9.49
2023-03-31T02:13:47.740Z,9.56
2023-03-31T02:16:19.142Z,9.59
2023-03-31T02:18:50.094Z,9.56
2023-03-31T02:21:17.641Z,9.56
2023-03-31T02:23:45.789Z,9.52
2023-03-31T02:26:16.727Z,9.56
2023-03-31T02:28:43.563Z,9.52
2023-03-31T02:33:49.829Z,9.59
2023-03-31T02:36:17.090Z,9.57
2023-03-31T02:38:48.349Z,9.55
2023-03-31T02:41:15.028Z,9.51
2023-03-31T02:43:41.570Z,9.49
2023-03-31T02:46:08.488Z,9.49
2023-03-31T02:48:40.602Z,9.47
2023-03-31T02:59:16.700Z,9.55
2023-03-31T03:07:24.785Z,9.51
2023-03-31T03:15:34.422Z,9.57
2023-03-31T03:18:02.072Z,9.55
2023-03-31T03:20:28.664Z,9.52
2023-03-31T03:22:55.477Z,9.48
2023-03-31T03:25:22.012Z,9.51
2023-03-31T03:27:48.567Z,9.54
2023-03-31T03:30:15.338Z,9.51
2023-03-31T03:32:42.189Z,9.50
2023-03-31T03:35:09.802Z,9.55
2023-03-31T03:37:36.767Z,9.52
2023-03-31T03:40:06.000Z,9.51
2023-03-31T03:42:33.906Z,9.45
2023-03-31T03:45:01.366Z,9.49
2023-03-31T03:47:28.885Z,9.56
2023-03-31T03:49:55.537Z,9.54
2023-03-31T03:52:22.195Z,9.59
2023-03-31T03:54:48.755Z,9.56
2023-03-31T03:57:15.624Z,9.57
2023-03-31T03:59:42.171Z,9.57
2023-03-31T04:02:08.874Z,9.57
2023-03-31T04:04:35.489Z,9.67
2023-03-31T04:07:02.091Z,9.71
2023-03-31T04:09:28.789Z,9.73
2023-03-31T04:11:55.360Z,9.73
2023-03-31T04:14:21.977Z,9.69
2023-03-31T04:16:48.617Z,9.68
2023-03-31T04:19:17.679Z,9.67
2023-03-31T04:21:45.841Z,9.74
2023-03-31T04:24:16.189Z,9.70
2023-03-31T04:26:42.961Z,9.75
2023-03-31T04:29:12.900Z,9.75
2023-03-31T04:31:43.105Z,9.68
2023-03-31T04:34:15.082Z,9.68
2023-03-31T04:36:47.562Z,9.72
2023-03-31T04:39:16.907Z,9.74
2023-03-31T04:41:43.845Z,9.70
2023-03-31T04:44:10.885Z,9.75
2023-03-31T04:46:37.601Z,9.69
2023-03-31T04:49:05.795Z,9.67
2023-03-31T04:51:32.646Z,9.76
2023-03-31T04:53:59.199Z,9.72
2023-03-31T04:56:26.712Z,9.73
2023-03-31T04:58:53.716Z,9.75
2023-03-31T05:01:20.550Z,9.72
2023-03-31T05:03:48.168Z,9.76
2023-03-31T05:06:16.866Z,9.82
2023-03-31T05:08:44.417Z,9.78
2023-03-31T05:11:11.386Z,9.76
2023-03-31T05:13:38.170Z,9.80
2023-03-31T05:16:10.952Z,9.74
2023-03-31T05:18:37.718Z,9.73
2023-03-31T05:21:21.622Z,9.72
2023-03-31T05:23:48.553Z,9.77
2023-03-31T05:26:15.470Z,9.71
2023-03-31T05:28:42.253Z,9.73
2023-03-31T05:31:10.093Z,9.81
2023-03-31T05:33:41.366Z,9.79
2023-03-31T05:36:10.416Z,9.76
2023-03-31T05:38:37.370Z,9.80
2023-03-31T05:41:03.911Z,9.79
2023-03-31T05:43:30.531Z,9.72
2023-03-31T05:45:57.130Z,9.71
2023-03-31T05:48:23.707Z,9.73
2023-03-31T05:50:50.298Z,9.71
2023-03-31T05:53:16.903Z,9.71
2023-03-31T05:55:43.463Z,9.72
2023-03-31T05:58:09.998Z,9.73
2023-03-31T06:00:37.923Z,9.73
2023-03-31T06:03:04.932Z,9.85
2023-03-31T06:05:32.455Z,9.81
2023-03-31T06:07:59.040Z,9.79
2023-03-31T06:10:25.611Z,9.82
2023-03-31T06:12:52.247Z,9.75
2023-03-31T06:15:18.824Z,9.82
2023-03-31T06:17:45.659Z,9.80
2023-03-31T06:20:26.446Z,9.81
2023-03-31T06:22:55.039Z,9.87
2023-03-31T06:25:22.600Z,9.94
2023-03-31T06:27:49.133Z,9.82
2023-03-31T06:30:16.004Z,9.85
2023-03-31T06:32:42.646Z,9.94
2023-03-31T06:35:09.592Z,9.82
2023-03-31T06:37:36.193Z,9.86
2023-03-31T06:40:03.053Z,9.90
2023-03-31T06:42:29.637Z,9.99
2023-03-31T06:44:56.194Z,10.00
2023-03-31T06:47:22.841Z,10.02
2023-03-31T06:49:49.918Z,9.99
2023-03-31T06:52:17.009Z,10.09
2023-03-31T06:54:43.985Z,9.97
2023-03-31T06:57:11.039Z,10.03
2023-03-31T06:59:38.036Z,10.08
2023-03-31T07:02:05.038Z,10.11
2023-03-31T07:04:31.744Z,10.13
2023-03-31T07:06:59.508Z,10.09
2023-03-31T07:09:26.044Z,10.12
2023-03-31T07:11:52.588Z,10.16
2023-03-31T07:14:19.170Z,10.12
2023-03-31T07:16:45.857Z,10.07
2023-03-31T07:19:12.848Z,10.08
2023-03-31T07:21:39.411Z,10.10
2023-03-31T07:24:06.017Z,10.14
2023-03-31T07:26:35.155Z,10.13
2023-03-31T07:29:01.770Z,10.18
2023-03-31T07:31:28.420Z,10.12
2023-03-31T07:33:54.959Z,10.21
2023-03-31T07:36:22.019Z,10.23
2023-03-31T07:38:49.724Z,10.22
2023-03-31T07:41:19.438Z,10.29
2023-03-31T07:43:46.497Z,10.36
2023-03-31T07:46:17.320Z,10.42
2023-03-31T07:48:44.298Z,10.47
2023-03-31T07:51:11.272Z,10.45
2023-03-31T07:53:37.781Z,10.53
2023-03-31T07:56:04.965Z,10.56
2023-03-31T07:58:31.717Z,10.59
2023-03-31T08:00:58.336Z,10.60
2023-03-31T08:03:24.957Z,10.60
2023-03-31T08:05:52.570Z,10.66
2023-03-31T08:08:19.628Z,10.74
2023-03-31T08:10:46.242Z,10.72
2023-03-31T08:13:12.812Z,10.78
2023-03-31T08:15:39.360Z,10.81
2023-03-31T08:18:06.021Z,10.89
2023-03-31T08:20:33.037Z,10.91
2023-03-31T08:23:00.220Z,10.96
2023-03-31T08:25:26.816Z,11.00
2023-03-31T08:27:53.365Z,11.04
2023-03-31T08:30:20.646Z,11.05
2023-03-31T08:32:49.135Z,11.07
2023-03-31T08:35:15.739Z,11.08
2023-03-31T08:37:42.481Z,11.11
2023-03-31T08:40:19.003Z,11.14
2023-03-31T08:42:49.698Z,11.10
2023-03-31T08:45:37.623Z,11.18
2023-03-31T08:48:14.265Z,11.28
2023-03-31T08:50:47.678Z,11.34
2023-03-31T08:53:25.118Z,11.40
2023-03-31T08:55:54.594Z,11.48
2023-03-31T09:01:22.273Z,11.63
2023-03-31T09:06:38.272Z,11.79
2023-03-31T09:09:10.802Z,11.90
2023-03-31T09:22:30.317Z,12.52
2023-03-31T09:27:37.197Z,12.67
2023-03-31T09:32:49.661Z,12.81
2023-03-31T09:35:18.884Z,12.79
2023-03-31T09:37:45.639Z,12.92
2023-03-31T09:40:17.796Z,13.00
2023-03-31T09:42:46.510Z,13.07
2023-03-31T09:45:16.681Z,13.09
2023-03-31T09:47:46.793Z,13.15
2023-03-31T09:50:14.477Z,13.23
2023-03-31T09:52:47.565Z,13.33
2023-03-31T09:55:39.172Z,13.44
2023-03-31T09:58:12.560Z,13.56
2023-03-31T10:00:43.580Z,13.70
2023-03-31T10:03:14.017Z,13.86
2023-03-31T10:05:51.216Z,14.05
2023-03-31T10:16:30.916Z,14.61
2023-03-31T10:22:03.006Z,14.75
2023-03-31T10:24:38.342Z,14.58
2023-03-31T10:27:07.379Z,14.60
2023-03-31T10:29:34.986Z,14.73
2023-03-31T10:32:06.222Z,14.83
2023-03-31T10:34:43.198Z,14.78
2023-03-31T10:37:17.657Z,14.79
2023-03-31T10:39:47.742Z,15.01
2023-03-31T10:42:23.054Z,15.25
2023-03-31T10:44:49.926Z,15.37
2023-03-31T10:47:21.148Z,15.48
2023-03-31T10:49:51.707Z,15.59
2023-03-31T10:52:21.996Z,15.61
2023-03-31T10:54:52.969Z,15.58
2023-03-31T10:57:27.613Z,15.52
2023-03-31T11:05:22.666Z,15.38
2023-03-31T11:08:01.395Z,15.32
2023-03-31T11:13:34.232Z,15.33
2023-03-31T11:19:11.740Z,15.33
2023-03-31T11:32:46.133Z,14.07
2023-03-31T11:43:42.348Z,13.69
2023-03-31T11:46:15.375Z,13.63
2023-03-31T11:48:47.782Z,13.55
2023-03-31T11:51:22.941Z,13.48
2023-03-31T11:53:52.544Z,13.41
2023-03-31T11:56:20.148Z,13.41
2023-03-31T11:58:53.639Z,13.34
2023-03-31T12:01:28.083Z,13.31
2023-03-31T12:04:34.485Z,13.24
2023-03-31T12:07:10.257Z,13.27
2023-03-31T12:12:22.562Z,13.34
2023-03-31T12:14:55.575Z,13.31
2023-03-31T12:17:26.785Z,13.34
2023-03-31T12:20:01.130Z,13.36
2023-03-31T12:22:41.105Z,13.35
2023-03-31T12:25:14.973Z,13.43
2023-03-31T12:27:47.229Z,13.42
2023-03-31T12:57:29.728Z,13.85
2023-03-31T13:03:34.002Z,13.70
2023-03-31T13:06:01.484Z,13.77
2023-03-31T13:09:08.515Z,13.77
2023-03-31T13:14:21.531Z,13.70
2023-03-31T13:16:55.615Z,13.65
2023-03-31T13:19:41.777Z,13.51
2023-03-31T13:22:29.768Z,13.53
2023-03-31T13:25:26.853Z,13.62
2023-03-31T13:27:54.055Z,13.78
2023-03-31T13:33:17.776Z,13.91
2023-03-31T13:35:50.150Z,14.00
2023-03-31T14:00:42.008Z,13.65
2023-03-31T14:03:23.864Z,13.67
2023-03-31T14:06:02.309Z,13.58
2023-03-31T14:09:07.650Z,13.40
2023-03-31T14:11:34.322Z,13.36
2023-03-31T14:14:18.676Z,13.21
2023-03-31T14:16:51.144Z,13.19
2023-03-31T14:25:37.859Z,13.45
2023-03-31T14:31:21.618Z,13.14
2023-03-31T14:39:24.344Z,12.83
2023-03-31T14:41:55.692Z,12.77
2023-03-31T14:44:23.177Z,12.71
2023-03-31T14:46:51.462Z,12.72
2023-03-31T14:49:27.547Z,12.65
2023-03-31T14:51:58.864Z,12.66
2023-03-31T14:54:25.543Z,12.66
2023-03-31T14:56:55.340Z,12.65
2023-03-31T14:59:27.389Z,12.65
2023-03-31T15:01:56.735Z,12.69
2023-03-31T15:04:41.517Z,12.63
2023-03-31T15:07:09.776Z,12.62
2023-03-31T15:09:36.761Z,12.65
2023-03-31T15:12:07.467Z,12.59
2023-03-31T15:14:40.773Z,12.53
2023-03-31T15:17:18.720Z,12.46
2023-03-31T15:19:45.387Z,12.43
2023-03-31T15:22:16.320Z,12.32
2023-03-31T15:24:42.955Z,12.30
2023-03-31T15:27:20.492Z,12.29
2023-03-31T15:29:55.209Z,12.29
2023-03-31T15:32:28.251Z,12.26
2023-03-31T15:34:57.360Z,12.27
2023-03-31T15:37:38.741Z,12.28
2023-03-31T15:40:18.028Z,12.22
2023-03-31T15:43:01.451Z,12.23
2023-03-31T15:45:50.185Z,12.16
2023-03-31T15:48:22.703Z,12.13
2023-03-31T15:50:50.049Z,12.12
2023-03-31T15:53:39.073Z,12.11
2023-03-31T15:56:06.827Z,12.13
2023-03-31T15:58:56.197Z,12.16
2023-03-31T16:01:27.002Z,12.27
2023-03-31T16:03:55.025Z,12.37
2023-03-31T16:09:05.849Z,12.45
2023-03-31T16:14:18.891Z,12.48
2023-03-31T16:16:49.899Z,12.46
2023-03-31T16:19:18.343Z,12.43
2023-03-31T16:21:52.620Z,12.34
2023-03-31T16:24:21.730Z,12.26
2023-03-31T16:26:49.228Z,12.26
2023-03-31T16:29:21.996Z,12.22
2023-03-31T16:31:49.071Z,12.17
2023-03-31T16:34:16.057Z,12.17
2023-03-31T16:36:42.993Z,12.12
2023-03-31T16:39:09.768Z,12.10
2023-03-31T16:41:38.138Z,12.12
2023-03-31T16:44:06.303Z,12.08
2023-03-31T16:46:33.458Z,12.11
2023-03-31T16:49:00.305Z,12.07
2023-03-31T16:51:26.940Z,12.08
2023-03-31T16:53:53.600Z,12.05
2023-03-31T16:56:20.240Z,11.99
2023-03-31T16:58:46.945Z,12.01
2023-03-31T17:01:13.591Z,12.04
2023-03-31T17:03:43.240Z,12.10
2023-03-31T17:06:12.543Z,12.13
2023-03-31T17:08:39.882Z,12.11
2023-03-31T17:11:12.021Z,12.04
2023-03-31T17:13:40.415Z,12.06
2023-03-31T17:16:16.549Z,12.00
2023-03-31T17:18:48.813Z,11.98
2023-03-31T17:21:19.404Z,11.96
2023-03-31T17:23:47.595Z,11.88
2023-03-31T17:26:15.441Z,11.76
2023-03-31T17:28:45.616Z,11.78
2023-03-31T17:31:14.970Z,11.71
2023-03-31T17:33:42.411Z,11.70
2023-03-31T17:36:10.039Z,11.62
2023-03-31T17:38:36.924Z,11.61
2023-03-31T17:41:04.959Z,11.59
2023-03-31T17:43:32.659Z,11.54
2023-03-31T17:46:04.289Z,11.53
2023-03-31T17:48:31.023Z,11.50
2023-03-31T17:50:59.127Z,11.50
2023-03-31T17:53:25.965Z,11.48
2023-03-31T17:55:54.627Z,11.49
2023-03-31T17:58:22.617Z,11.48
2023-03-31T18:00:49.175Z,11.45
2023-03-31T18:03:16.172Z,11.44
2023-03-31T18:05:43.399Z,11.41
2023-03-31T18:08:10.595Z,11.37
2023-03-31T18:10:39.644Z,11.35
2023-03-31T18:13:07.546Z,11.30
2023-03-31T18:15:34.130Z,11.28
2023-03-31T18:18:01.584Z,11.27
2023-03-31T18:20:28.210Z,11.18
2023-03-31T18:22:54.803Z,11.09
2023-03-31T18:25:21.816Z,11.08
2023-03-31T18:27:49.126Z,11.05
2023-03-31T18:30:16.301Z,10.99
2023-03-31T18:32:43.632Z,10.97
2023-03-31T18:35:10.587Z,10.97
2023-03-31T18:37:37.179Z,10.96
2023-03-31T18:40:04.036Z,10.90
2023-03-31T18:42:30.812Z,10.89
2023-03-31T18:44:57.643Z,10.88
2023-03-31T18:47:24.562Z,10.87
2023-03-31T18:49:55.940Z,10.85
2023-03-31T18:52:22.778Z,10.82
2023-03-31T18:54:50.718Z,10.82
2023-03-31T18:57:17.774Z,10.83
2023-03-31T18:59:44.609Z,10.77
2023-03-31T19:02:14.318Z,10.80
2023-03-31T19:04:41.008Z,10.78
2023-03-31T19:07:07.553Z,10.77
2023-03-31T19:09:34.108Z,10.74
2023-03-31T19:12:00.693Z,10.72
2023-03-31T19:14:27.342Z,10.67
2023-03-31T19:16:53.967Z,10.72
2023-03-31T19:19:20.555Z,10.69
2023-03-31T19:21:48.490Z,10.64
2023-03-31T19:24:15.625Z,10.69
2023-03-31T19:26:42.362Z,10.65
2023-03-31T19:29:09.109Z,10.64
2023-03-31T19:31:38.648Z,10.62
2023-03-31T19:34:06.323Z,10.60
2023-03-31T19:36:33.094Z,10.60
2023-03-31T19:39:01.097Z,10.57
2023-03-31T19:41:28.139Z,10.53
2023-03-31T19:43:54.993Z,10.52
2023-03-31T19:46:21.742Z,10.49
2023-03-31T19:48:48.315Z,10.45
2023-03-31T19:51:14.878Z,10.46
2023-03-31T19:53:41.493Z,10.40
2023-03-31T19:56:12.658Z,10.36
2023-03-31T19:58:39.869Z,10.36
2023-03-31T20:01:13.585Z,10.35
2023-03-31T20:03:40.304Z,10.32
2023-03-31T20:06:10.370Z,10.35
2023-03-31T20:08:37.619Z,10.21
2023-03-31T20:11:07.304Z,10.27
2023-03-31T20:13:36.024Z,10.30
2023-03-31T20:16:06.562Z,10.31
2023-03-31T20:18:34.846Z,10.32
2023-03-31T20:21:04.339Z,10.29
2023-03-31T20:23:31.178Z,10.25
2023-03-31T20:25:57.975Z,10.22
2023-03-31T20:28:24.525Z,10.14
2023-03-31T20:30:51.897Z,10.13
2023-03-31T20:33:18.439Z,10.11
2023-03-31T20:35:46.827Z,10.13
2023-03-31T20:38:13.370Z,10.12
2023-03-31T20:40:40.765Z,10.00
2023-03-31T20:43:07.378Z,10.02
2023-03-31T20:45:34.004Z,9.98
2023-03-31T20:48:01.013Z,9.96
2023-03-31T20:50:28.297Z,9.98
2023-03-31T20:52:55.087Z,9.96
2023-03-31T20:55:21.855Z,9.92
2023-03-31T20:57:48.453Z,9.93
2023-03-31T21:00:15.548Z,9.94
2023-03-31T21:02:42.317Z,9.95
2023-03-31T21:05:09.352Z,9.81
2023-03-31T21:07:35.885Z,9.87
2023-03-31T21:10:03.216Z,9.81
2023-03-31T21:12:29.776Z,9.76
2023-03-31T21:14:56.310Z,9.84
2023-03-31T21:17:23.022Z,9.79
2023-03-31T21:19:49.718Z,9.69
2023-03-31T21:22:16.428Z,9.77
2023-03-31T21:24:43.017Z,9.79
2023-03-31T21:27:09.594Z,9.75
2023-03-31T21:29:36.642Z,9.71
2023-03-31T21:32:03.315Z,9.70
2023-03-31T21:34:29.909Z,9.72
2023-03-31T21:36:56.451Z,9.67
2023-03-31T21:39:23.049Z,9.68
2023-03-31T21:41:49.587Z,9.72
2023-03-31T21:44:16.420Z,9.68
2023-03-31T21:46:45.047Z,9.68
2023-03-31T21:49:11.836Z,9.66
2023-03-31T21:51:38.515Z,9.61
2023-03-31T21:54:05.070Z,9.59
2023-03-31T21:56:34.282Z,9.56
2023-03-31T21:59:02.459Z,9.47
2023-03-31T22:01:29.669Z,9.50
2023-03-31T22:03:56.257Z,9.45
2023-03-31T22:06:22.871Z,9.46
2023-03-31T22:08:49.668Z,9.54
2023-03-31T22:11:16.360Z,9.51
2023-03-31T22:13:43.072Z,9.47
2023-03-31T22:16:20.801Z,9.43
2023-03-31T22:18:50.441Z,9.45
2023-03-31T22:21:20.800Z,9.46
2023-03-31T22:23:47.520Z,9.35
2023-03-31T22:26:14.434Z,9.42
2023-03-31T22:28:41.376Z,9.41
2023-03-31T22:31:08.963Z,9.44
2023-03-31T22:33:36.167Z,9.35
2023-03-31T22:36:03.102Z,9.37
2023-03-31T22:38:29.907Z,9.37
2023-03-31T22:40:57.084Z,9.39
2023-03-31T22:43:23.864Z,9.37
2023-03-31T22:45:50.752Z,9.36
2023-03-31T22:48:18.331Z,9.33
2023-03-31T22:50:48.402Z,9.36
2023-03-31T22:53:15.157Z,9.35
2023-03-31T22:55:43.204Z,9.36
2023-03-31T22:58:20.717Z,9.38
2023-03-31T23:00:55.799Z,9.33
2023-03-31T23:03:22.370Z,9.36
2023-03-31T23:05:48.945Z,9.35
2023-03-31T23:08:15.520Z,9.34
2023-03-31T23:10:42.086Z,9.30
2023-03-31T23:13:08.703Z,9.28
2023-03-31T23:15:35.662Z,9.23
2023-03-31T23:18:02.338Z,9.27
2023-03-31T23:20:29.703Z,9.26
2023-03-31T23:22:56.879Z,9.23
2023-03-31T23:25:23.429Z,9.26
2023-03-31T23:27:50.001Z,9.29
2023-03-31T23:30:16.951Z,9.28
2023-03-31T23:32:43.518Z,9.29
2023-03-31T23:35:11.484Z,9.26
2023-03-31T23:37:38.163Z,9.29
2023-03-31T23:40:05.346Z,9.26
2023-03-31T23:42:31.860Z,9.24
2023-03-31T23:44:58.506Z,9.21
2023-03-31T23:47:25.612Z,9.20
2023-03-31T23:49:53.751Z,9.16
2023-03-31T23:52:20.463Z,9.19
2023-03-31T23:54:47.407Z,9.20
2023-03-31T23:57:14.118Z,9.20
2023-03-31T23:59:40.670Z,9.18
